sensor_id;sensor_type;location;lat;lon;timestamp;temperature;humidity
14378;DHT22;7272;53.668;9.578;2022-12-15T00:01:10;-3.50;99.90
14378;DHT22;7272;53.668;9.578;2022-12-15T00:04:31;-3.50;99.90
14378;DHT22;7272;53.668;9.578;2022-12-15T00:07:51;-3.40;99.90
14378;DHT22;7272;53.668;9.578;2022-12-15T00:11:11;-3.40;99.90
14378;DHT22;7272;53.668;9.578;2022-12-15T00:14:31;-3.40;99.90
14378;DHT22;7272;53.668;9.578;2022-12-15T00:17:51;-3.50;99.90
14378;DHT22;7272;53.668;9.578;2022-12-15T00:21:12;-3.60;99.90
14378;DHT22;7272;53.668;9.578;2022-12-15T00:24:32;-3.50;99.90
14378;DHT22;7272;53.668;9.578;2022-12-15T00:27:52;-3.30;99.90
14378;DHT22;7272;53.668;9.578;2022-12-15T00:31:14;-3.30;99.90
14378;DHT22;7272;53.668;9.578;2022-12-15T00:34:34;-3.30;99.90
14378;DHT22;7272;53.668;9.578;2022-12-15T00:37:55;-3.30;99.90
14378;DHT22;7272;53.668;9.578;2022-12-15T00:41:16;-3.20;99.90
14378;DHT22;7272;53.668;9.578;2022-12-15T00:44:19;-3.10;99.90
14378;DHT22;7272;53.668;9.578;2022-12-15T00:47:23;-3.10;99.90
14378;DHT22;7272;53.668;9.578;2022-12-15T00:50:25;-3.10;99.90
14378;DHT22;7272;53.668;9.578;2022-12-15T00:53:46;-3.10;99.90
14378;DHT22;7272;53.668;9.578;2022-12-15T00:57:05;-3.20;99.90
14378;DHT22;7272;53.668;9.578;2022-12-15T01:00:26;-3.40;99.90
14378;DHT22;7272;53.668;9.578;2022-12-15T01:03:46;-3.40;99.90
14378;DHT22;7272;53.668;9.578;2022-12-15T01:07:05;-3.40;99.90
14378;DHT22;7272;53.668;9.578;2022-12-15T01:10:27;-3.40;99.90
14378;DHT22;7272;53.668;9.578;2022-12-15T01:13:47;-3.40;99.90
14378;DHT22;7272;53.668;9.578;2022-12-15T01:17:07;-3.40;99.90
14378;DHT22;7272;53.668;9.578;2022-12-15T01:20:27;-3.40;99.90
14378;DHT22;7272;53.668;9.578;2022-12-15T01:23:32;-3.40;99.90
14378;DHT22;7272;53.668;9.578;2022-12-15T01:26:37;-3.40;99.90
14378;DHT22;7272;53.668;9.578;2022-12-15T01:29:39;-3.40;99.90
14378;DHT22;7272;53.668;9.578;2022-12-15T01:32:42;-3.40;99.90
14378;DHT22;7272;53.668;9.578;2022-12-15T01:35:48;-3.30;99.90
14378;DHT22;7272;53.668;9.578;2022-12-15T01:38:56;-3.30;99.90
14378;DHT22;7272;53.668;9.578;2022-12-15T01:42:00;-3.20;99.90
14378;DHT22;7272;53.668;9.578;2022-12-15T01:45:38;-3.10;99.90
14378;DHT22;7272;53.668;9.578;2022-12-15T01:48:46;-3.10;99.90
14378;DHT22;7272;53.668;9.578;2022-12-15T01:51:52;-3.00;99.90
14378;DHT22;7272;53.668;9.578;2022-12-15T01:54:56;-2.90;99.90
14378;DHT22;7272;53.668;9.578;2022-12-15T01:58:02;-2.90;99.90
14378;DHT22;7272;53.668;9.578;2022-12-15T02:01:06;-2.80;99.90
14378;DHT22;7272;53.668;9.578;2022-12-15T02:04:10;-2.80;99.90
14378;DHT22;7272;53.668;9.578;2022-12-15T02:07:13;-2.80;99.90
14378;DHT22;7272;53.668;9.578;2022-12-15T02:10:16;-2.80;99.90
14378;DHT22;7272;53.668;9.578;2022-12-15T02:13:25;-2.80;99.90
14378;DHT22;7272;53.668;9.578;2022-12-15T02:16:37;-2.80;99.90
14378;DHT22;7272;53.668;9.578;2022-12-15T02:20:25;-2.90;99.90
14378;DHT22;7272;53.668;9.578;2022-12-15T02:30:47;-2.90;99.90
14378;DHT22;7272;53.668;9.578;2022-12-15T02:34:17;-2.90;99.90
14378;DHT22;7272;53.668;9.578;2022-12-15T02:37:24;-2.90;99.90
14378;DHT22;7272;53.668;9.578;2022-12-15T02:40:27;-3.00;99.90
14378;DHT22;7272;53.668;9.578;2022-12-15T02:43:31;-3.00;99.90
14378;DHT22;7272;53.668;9.578;2022-12-15T02:46:53;-3.00;99.90
14378;DHT22;7272;53.668;9.578;2022-12-15T02:50:21;-2.90;99.90
14378;DHT22;7272;53.668;9.578;2022-12-15T02:53:40;-3.00;99.90
14378;DHT22;7272;53.668;9.578;2022-12-15T02:56:52;-3.00;99.90
14378;DHT22;7272;53.668;9.578;2022-12-15T03:00:02;-3.00;99.90
14378;DHT22;7272;53.668;9.578;2022-12-15T03:03:07;-3.00;99.90
14378;DHT22;7272;53.668;9.578;2022-12-15T03:06:10;-2.90;99.90
14378;DHT22;7272;53.668;9.578;2022-12-15T03:09:13;-2.90;99.90
14378;DHT22;7272;53.668;9.578;2022-12-15T03:12:15;-2.90;99.90
14378;DHT22;7272;53.668;9.578;2022-12-15T03:15:18;-3.00;99.90
14378;DHT22;7272;53.668;9.578;2022-12-15T03:18:22;-3.00;99.90
14378;DHT22;7272;53.668;9.578;2022-12-15T03:21:24;-3.00;99.90
14378;DHT22;7272;53.668;9.578;2022-12-15T03:24:27;-3.10;99.90
14378;DHT22;7272;53.668;9.578;2022-12-15T03:27:30;-3.10;99.90
14378;DHT22;7272;53.668;9.578;2022-12-15T03:30:32;-3.10;99.90
14378;DHT22;7272;53.668;9.578;2022-12-15T03:33:36;-3.10;99.90
14378;DHT22;7272;53.668;9.578;2022-12-15T03:36:38;-3.10;99.90
14378;DHT22;7272;53.668;9.578;2022-12-15T03:39:41;-3.10;99.90
14378;DHT22;7272;53.668;9.578;2022-12-15T03:42:44;-3.10;99.90
14378;DHT22;7272;53.668;9.578;2022-12-15T03:45:49;-3.10;99.90
14378;DHT22;7272;53.668;9.578;2022-12-15T03:48:53;-3.10;99.90
14378;DHT22;7272;53.668;9.578;2022-12-15T03:51:56;-3.10;99.90
14378;DHT22;7272;53.668;9.578;2022-12-15T03:54:58;-3.10;99.90
14378;DHT22;7272;53.668;9.578;2022-12-15T03:58:01;-3.00;99.90
14378;DHT22;7272;53.668;9.578;2022-12-15T04:01:10;-3.00;99.90
14378;DHT22;7272;53.668;9.578;2022-12-15T04:04:14;-2.90;99.90
14378;DHT22;7272;53.668;9.578;2022-12-15T04:07:16;-3.00;99.90
14378;DHT22;7272;53.668;9.578;2022-12-15T04:10:19;-3.00;99.90
14378;DHT22;7272;53.668;9.578;2022-12-15T04:13:22;-3.00;99.90
14378;DHT22;7272;53.668;9.578;2022-12-15T04:16:24;-2.90;99.90
14378;DHT22;7272;53.668;9.578;2022-12-15T04:19:28;-2.90;99.90
14378;DHT22;7272;53.668;9.578;2022-12-15T04:22:50;-2.90;99.90
14378;DHT22;7272;53.668;9.578;2022-12-15T04:25:53;-3.00;99.90
14378;DHT22;7272;53.668;9.578;2022-12-15T04:29:12;-3.00;99.90
14378;DHT22;7272;53.668;9.578;2022-12-15T04:32:32;-3.00;99.90
14378;DHT22;7272;53.668;9.578;2022-12-15T04:35:54;-3.00;99.90
14378;DHT22;7272;53.668;9.578;2022-12-15T04:39:14;-3.00;99.90
14378;DHT22;7272;53.668;9.578;2022-12-15T04:42:37;-3.00;99.90
14378;DHT22;7272;53.668;9.578;2022-12-15T04:45:59;-3.00;99.90
14378;DHT22;7272;53.668;9.578;2022-12-15T04:49:19;-3.00;99.90
14378;DHT22;7272;53.668;9.578;2022-12-15T04:52:40;-3.10;99.90
14378;DHT22;7272;53.668;9.578;2022-12-15T04:56:01;-3.20;99.90
14378;DHT22;7272;53.668;9.578;2022-12-15T04:59:21;-3.20;99.90
14378;DHT22;7272;53.668;9.578;2022-12-15T05:02:41;-3.40;99.90
14378;DHT22;7272;53.668;9.578;2022-12-15T05:06:00;-3.50;99.90
14378;DHT22;7272;53.668;9.578;2022-12-15T05:09:22;-3.50;99.90
14378;DHT22;7272;53.668;9.578;2022-12-15T05:12:42;-3.50;99.90
14378;DHT22;7272;53.668;9.578;2022-12-15T05:16:03;-3.40;99.90
14378;DHT22;7272;53.668;9.578;2022-12-15T05:19:23;-3.40;99.90
14378;DHT22;7272;53.668;9.578;2022-12-15T05:22:43;-3.40;99.90
14378;DHT22;7272;53.668;9.578;2022-12-15T05:26:04;-3.40;99.90
14378;DHT22;7272;53.668;9.578;2022-12-15T05:29:24;-3.50;99.90
14378;DHT22;7272;53.668;9.578;2022-12-15T05:32:44;-3.50;99.90
14378;DHT22;7272;53.668;9.578;2022-12-15T05:35:46;-3.40;99.90
14378;DHT22;7272;53.668;9.578;2022-12-15T05:38:50;-3.50;99.90
14378;DHT22;7272;53.668;9.578;2022-12-15T05:41:55;-3.50;99.90
14378;DHT22;7272;53.668;9.578;2022-12-15T05:44:57;-3.40;99.90
14378;DHT22;7272;53.668;9.578;2022-12-15T05:48:00;-3.40;99.90
14378;DHT22;7272;53.668;9.578;2022-12-15T05:51:03;-3.40;99.90
14378;DHT22;7272;53.668;9.578;2022-12-15T05:54:09;-3.30;99.90
14378;DHT22;7272;53.668;9.578;2022-12-15T05:57:13;-3.30;99.90
14378;DHT22;7272;53.668;9.578;2022-12-15T06:00:16;-3.30;99.90
14378;DHT22;7272;53.668;9.578;2022-12-15T06:03:19;-3.30;99.90
14378;DHT22;7272;53.668;9.578;2022-12-15T06:06:21;-3.30;99.90
14378;DHT22;7272;53.668;9.578;2022-12-15T06:09:24;-3.30;99.90
14378;DHT22;7272;53.668;9.578;2022-12-15T06:12:29;-3.30;99.90
14378;DHT22;7272;53.668;9.578;2022-12-15T06:15:31;-3.40;99.90
14378;DHT22;7272;53.668;9.578;2022-12-15T06:18:36;-3.40;99.90
14378;DHT22;7272;53.668;9.578;2022-12-15T06:21:39;-3.40;99.90
14378;DHT22;7272;53.668;9.578;2022-12-15T06:24:42;-3.40;99.90
14378;DHT22;7272;53.668;9.578;2022-12-15T06:27:45;-3.40;99.90
14378;DHT22;7272;53.668;9.578;2022-12-15T06:30:49;-3.40;99.90
14378;DHT22;7272;53.668;9.578;2022-12-15T06:33:52;-3.40;99.90
14378;DHT22;7272;53.668;9.578;2022-12-15T06:36:55;-3.30;99.90
14378;DHT22;7272;53.668;9.578;2022-12-15T06:39:57;-3.20;99.90
14378;DHT22;7272;53.668;9.578;2022-12-15T06:43:02;-3.10;99.90
14378;DHT22;7272;53.668;9.578;2022-12-15T06:46:04;-3.00;99.90
14378;DHT22;7272;53.668;9.578;2022-12-15T06:49:07;-2.90;99.90
14378;DHT22;7272;53.668;9.578;2022-12-15T06:52:10;-2.80;99.90
14378;DHT22;7272;53.668;9.578;2022-12-15T06:55:12;-2.80;99.90
14378;DHT22;7272;53.668;9.578;2022-12-15T06:58:16;-2.70;99.90
14378;DHT22;7272;53.668;9.578;2022-12-15T07:01:20;-2.60;99.90
14378;DHT22;7272;53.668;9.578;2022-12-15T07:04:23;-2.50;99.90
14378;DHT22;7272;53.668;9.578;2022-12-15T07:07:26;-2.50;99.90
14378;DHT22;7272;53.668;9.578;2022-12-15T07:10:29;-2.40;99.90
14378;DHT22;7272;53.668;9.578;2022-12-15T07:13:33;-2.30;99.90
14378;DHT22;7272;53.668;9.578;2022-12-15T07:16:35;-2.20;99.90
14378;DHT22;7272;53.668;9.578;2022-12-15T07:19:38;-2.10;99.90
14378;DHT22;7272;53.668;9.578;2022-12-15T07:22:40;-2.10;99.90
14378;DHT22;7272;53.668;9.578;2022-12-15T07:25:43;-2.00;99.90
14378;DHT22;7272;53.668;9.578;2022-12-15T07:28:46;-1.90;99.90
14378;DHT22;7272;53.668;9.578;2022-12-15T07:31:49;-1.80;99.90
14378;DHT22;7272;53.668;9.578;2022-12-15T07:34:51;-1.70;99.90
14378;DHT22;7272;53.668;9.578;2022-12-15T07:37:54;-1.70;99.90
14378;DHT22;7272;53.668;9.578;2022-12-15T07:40:59;-1.60;99.90
14378;DHT22;7272;53.668;9.578;2022-12-15T07:44:03;-1.60;99.90
14378;DHT22;7272;53.668;9.578;2022-12-15T07:47:06;-1.60;99.90
14378;DHT22;7272;53.668;9.578;2022-12-15T07:50:08;-1.60;99.90
14378;DHT22;7272;53.668;9.578;2022-12-15T07:53:11;-1.50;99.90
14378;DHT22;7272;53.668;9.578;2022-12-15T07:56:14;-1.50;99.90
14378;DHT22;7272;53.668;9.578;2022-12-15T07:59:17;-1.50;99.90
14378;DHT22;7272;53.668;9.578;2022-12-15T08:02:20;-1.50;99.90
14378;DHT22;7272;53.668;9.578;2022-12-15T08:05:23;-1.60;99.90
14378;DHT22;7272;53.668;9.578;2022-12-15T08:08:26;-1.50;99.90
14378;DHT22;7272;53.668;9.578;2022-12-15T08:11:28;-1.50;99.90
14378;DHT22;7272;53.668;9.578;2022-12-15T08:14:36;-1.50;99.90
14378;DHT22;7272;53.668;9.578;2022-12-15T08:17:38;-1.40;99.90
14378;DHT22;7272;53.668;9.578;2022-12-15T08:20:41;-1.40;99.90
14378;DHT22;7272;53.668;9.578;2022-12-15T08:23:44;-1.30;99.90
14378;DHT22;7272;53.668;9.578;2022-12-15T08:26:46;-1.20;99.90
14378;DHT22;7272;53.668;9.578;2022-12-15T08:29:51;-1.20;99.90
14378;DHT22;7272;53.668;9.578;2022-12-15T08:32:54;-1.10;99.90
14378;DHT22;7272;53.668;9.578;2022-12-15T08:35:57;-1.10;99.90
14378;DHT22;7272;53.668;9.578;2022-12-15T08:39:01;-1.10;99.90
14378;DHT22;7272;53.668;9.578;2022-12-15T08:42:04;-1.00;99.90
14378;DHT22;7272;53.668;9.578;2022-12-15T08:45:09;-1.00;99.90
14378;DHT22;7272;53.668;9.578;2022-12-15T08:48:12;-0.90;99.90
14378;DHT22;7272;53.668;9.578;2022-12-15T08:51:15;-0.90;99.90
14378;DHT22;7272;53.668;9.578;2022-12-15T08:54:18;-0.80;99.90
14378;DHT22;7272;53.668;9.578;2022-12-15T08:57:21;-0.70;99.90
14378;DHT22;7272;53.668;9.578;2022-12-15T09:00:26;-0.60;99.90
14378;DHT22;7272;53.668;9.578;2022-12-15T09:03:28;-0.40;99.90
14378;DHT22;7272;53.668;9.578;2022-12-15T09:06:33;-0.30;99.90
14378;DHT22;7272;53.668;9.578;2022-12-15T09:09:37;-0.20;99.90
14378;DHT22;7272;53.668;9.578;2022-12-15T09:12:39;-0.20;99.90
14378;DHT22;7272;53.668;9.578;2022-12-15T09:15:43;-0.10;99.90
14378;DHT22;7272;53.668;9.578;2022-12-15T09:18:47;-0.10;99.90
14378;DHT22;7272;53.668;9.578;2022-12-15T09:21:52;0.00;99.90
14378;DHT22;7272;53.668;9.578;2022-12-15T09:24:55;0.00;99.90
14378;DHT22;7272;53.668;9.578;2022-12-15T09:27:58;0.10;99.90
14378;DHT22;7272;53.668;9.578;2022-12-15T09:31:06;0.20;99.90
14378;DHT22;7272;53.668;9.578;2022-12-15T09:34:13;0.20;99.90
14378;DHT22;7272;53.668;9.578;2022-12-15T09:37:16;0.30;99.90
14378;DHT22;7272;53.668;9.578;2022-12-15T09:40:18;0.30;99.90
14378;DHT22;7272;53.668;9.578;2022-12-15T09:43:24;0.30;99.90
14378;DHT22;7272;53.668;9.578;2022-12-15T09:46:48;0.40;99.90
14378;DHT22;7272;53.668;9.578;2022-12-15T09:49:55;0.40;99.90
14378;DHT22;7272;53.668;9.578;2022-12-15T09:52:59;0.50;99.90
14378;DHT22;7272;53.668;9.578;2022-12-15T09:56:05;0.50;99.90
14378;DHT22;7272;53.668;9.578;2022-12-15T09:59:24;0.50;99.90
14378;DHT22;7272;53.668;9.578;2022-12-15T10:02:51;0.60;99.90
14378;DHT22;7272;53.668;9.578;2022-12-15T10:06:06;0.60;99.90
14378;DHT22;7272;53.668;9.578;2022-12-15T10:09:15;0.70;99.90
14378;DHT22;7272;53.668;9.578;2022-12-15T10:12:23;0.70;99.90
14378;DHT22;7272;53.668;9.578;2022-12-15T10:15:33;0.80;99.90
14378;DHT22;7272;53.668;9.578;2022-12-15T10:18:52;0.90;99.90
14378;DHT22;7272;53.668;9.578;2022-12-15T10:21:57;1.00;99.90
14378;DHT22;7272;53.668;9.578;2022-12-15T10:25:01;1.00;99.90
14378;DHT22;7272;53.668;9.578;2022-12-15T10:28:23;0.90;99.90
14378;DHT22;7272;53.668;9.578;2022-12-15T10:31:33;1.00;99.90
14378;DHT22;7272;53.668;9.578;2022-12-15T10:34:37;1.00;99.90
14378;DHT22;7272;53.668;9.578;2022-12-15T10:37:43;0.90;99.90
14378;DHT22;7272;53.668;9.578;2022-12-15T10:40:46;0.90;99.90
14378;DHT22;7272;53.668;9.578;2022-12-15T10:43:51;0.90;99.90
14378;DHT22;7272;53.668;9.578;2022-12-15T10:46:54;0.80;99.90
14378;DHT22;7272;53.668;9.578;2022-12-15T10:50:16;0.80;99.90
14378;DHT22;7272;53.668;9.578;2022-12-15T10:53:37;0.90;99.90
14378;DHT22;7272;53.668;9.578;2022-12-15T10:56:47;1.00;99.90
14378;DHT22;7272;53.668;9.578;2022-12-15T10:59:50;1.10;99.90
14378;DHT22;7272;53.668;9.578;2022-12-15T11:02:53;1.30;99.90
14378;DHT22;7272;53.668;9.578;2022-12-15T11:05:57;1.50;99.90
14378;DHT22;7272;53.668;9.578;2022-12-15T11:09:19;1.70;99.90
14378;DHT22;7272;53.668;9.578;2022-12-15T11:12:26;1.90;99.90
14378;DHT22;7272;53.668;9.578;2022-12-15T11:15:49;2.10;99.90
14378;DHT22;7272;53.668;9.578;2022-12-15T11:18:57;2.30;99.90
14378;DHT22;7272;53.668;9.578;2022-12-15T11:22:11;2.50;99.90
14378;DHT22;7272;53.668;9.578;2022-12-15T11:25:20;2.40;99.90
14378;DHT22;7272;53.668;9.578;2022-12-15T11:28:31;2.40;99.90
14378;DHT22;7272;53.668;9.578;2022-12-15T11:31:37;2.50;99.90
14378;DHT22;7272;53.668;9.578;2022-12-15T11:34:44;2.40;99.90
14378;DHT22;7272;53.668;9.578;2022-12-15T11:37:51;2.50;99.90
14378;DHT22;7272;53.668;9.578;2022-12-15T11:41:00;2.50;99.90
14378;DHT22;7272;53.668;9.578;2022-12-15T11:44:21;2.50;99.90
14378;DHT22;7272;53.668;9.578;2022-12-15T11:47:31;2.50;99.90
14378;DHT22;7272;53.668;9.578;2022-12-15T11:50:40;2.60;99.90
14378;DHT22;7272;53.668;9.578;2022-12-15T11:53:57;2.80;99.90
14378;DHT22;7272;53.668;9.578;2022-12-15T11:57:13;3.00;99.90
14378;DHT22;7272;53.668;9.578;2022-12-15T12:00:19;3.10;99.90
14378;DHT22;7272;53.668;9.578;2022-12-15T12:03:28;3.20;99.90
14378;DHT22;7272;53.668;9.578;2022-12-15T12:06:41;3.20;99.90
14378;DHT22;7272;53.668;9.578;2022-12-15T12:10:02;3.10;99.90
14378;DHT22;7272;53.668;9.578;2022-12-15T12:13:14;3.20;99.90
14378;DHT22;7272;53.668;9.578;2022-12-15T12:16:30;3.20;99.90
14378;DHT22;7272;53.668;9.578;2022-12-15T12:19:40;3.10;99.90
14378;DHT22;7272;53.668;9.578;2022-12-15T12:22:58;3.10;99.90
14378;DHT22;7272;53.668;9.578;2022-12-15T12:26:09;3.20;99.90
14378;DHT22;7272;53.668;9.578;2022-12-15T12:29:18;3.30;99.90
14378;DHT22;7272;53.668;9.578;2022-12-15T12:32:29;3.30;99.90
14378;DHT22;7272;53.668;9.578;2022-12-15T12:35:39;3.30;99.90
14378;DHT22;7272;53.668;9.578;2022-12-15T12:38:46;3.20;99.90
14378;DHT22;7272;53.668;9.578;2022-12-15T12:41:57;3.20;99.90
14378;DHT22;7272;53.668;9.578;2022-12-15T12:45:01;3.20;99.90
14378;DHT22;7272;53.668;9.578;2022-12-15T12:48:11;3.20;99.90
14378;DHT22;7272;53.668;9.578;2022-12-15T12:51:22;3.10;99.90
14378;DHT22;7272;53.668;9.578;2022-12-15T12:54:40;3.10;99.90
14378;DHT22;7272;53.668;9.578;2022-12-15T12:57:45;3.10;99.90
14378;DHT22;7272;53.668;9.578;2022-12-15T13:01:15;3.10;99.90
14378;DHT22;7272;53.668;9.578;2022-12-15T13:04:37;3.00;99.90
14378;DHT22;7272;53.668;9.578;2022-12-15T13:07:40;3.00;99.90
14378;DHT22;7272;53.668;9.578;2022-12-15T13:10:44;3.00;99.90
14378;DHT22;7272;53.668;9.578;2022-12-15T13:13:48;3.00;99.90
14378;DHT22;7272;53.668;9.578;2022-12-15T13:16:55;3.10;99.90
14378;DHT22;7272;53.668;9.578;2022-12-15T13:20:20;3.10;99.90
14378;DHT22;7272;53.668;9.578;2022-12-15T13:23:35;3.20;99.90
14378;DHT22;7272;53.668;9.578;2022-12-15T13:26:42;3.20;99.90
14378;DHT22;7272;53.668;9.578;2022-12-15T13:30:02;3.20;99.90
14378;DHT22;7272;53.668;9.578;2022-12-15T13:33:17;3.20;99.90
14378;DHT22;7272;53.668;9.578;2022-12-15T13:36:42;3.20;99.90
14378;DHT22;7272;53.668;9.578;2022-12-15T13:39:55;3.20;99.90
14378;DHT22;7272;53.668;9.578;2022-12-15T13:43:01;3.30;99.90
14378;DHT22;7272;53.668;9.578;2022-12-15T13:46:14;3.30;99.90
14378;DHT22;7272;53.668;9.578;2022-12-15T13:49:22;3.40;99.90
14378;DHT22;7272;53.668;9.578;2022-12-15T13:52:31;3.40;99.90
14378;DHT22;7272;53.668;9.578;2022-12-15T13:55:37;3.40;99.90
14378;DHT22;7272;53.668;9.578;2022-12-15T13:58:43;3.40;99.90
14378;DHT22;7272;53.668;9.578;2022-12-15T14:01:50;3.30;99.90
14378;DHT22;7272;53.668;9.578;2022-12-15T14:05:12;3.40;99.90
14378;DHT22;7272;53.668;9.578;2022-12-15T14:08:16;3.30;99.90
14378;DHT22;7272;53.668;9.578;2022-12-15T14:11:22;3.30;99.90
14378;DHT22;7272;53.668;9.578;2022-12-15T14:14:28;3.30;99.90
14378;DHT22;7272;53.668;9.578;2022-12-15T14:17:35;3.30;99.90
14378;DHT22;7272;53.668;9.578;2022-12-15T14:20:39;3.30;99.90
14378;DHT22;7272;53.668;9.578;2022-12-15T14:23:43;3.30;99.90
14378;DHT22;7272;53.668;9.578;2022-12-15T14:26:46;3.40;99.90
14378;DHT22;7272;53.668;9.578;2022-12-15T14:29:48;3.40;99.90
14378;DHT22;7272;53.668;9.578;2022-12-15T14:32:56;3.40;99.90
14378;DHT22;7272;53.668;9.578;2022-12-15T14:36:01;3.40;99.90
14378;DHT22;7272;53.668;9.578;2022-12-15T14:39:12;3.40;99.90
14378;DHT22;7272;53.668;9.578;2022-12-15T14:42:21;3.40;99.90
14378;DHT22;7272;53.668;9.578;2022-12-15T14:45:25;3.40;99.90
14378;DHT22;7272;53.668;9.578;2022-12-15T14:48:33;3.30;99.90
14378;DHT22;7272;53.668;9.578;2022-12-15T14:51:41;3.40;99.90
14378;DHT22;7272;53.668;9.578;2022-12-15T14:54:51;3.30;99.90
14378;DHT22;7272;53.668;9.578;2022-12-15T14:57:54;3.30;99.90
14378;DHT22;7272;53.668;9.578;2022-12-15T15:00:58;3.30;99.90
14378;DHT22;7272;53.668;9.578;2022-12-15T15:04:03;3.30;99.90
14378;DHT22;7272;53.668;9.578;2022-12-15T15:07:15;3.30;99.90
14378;DHT22;7272;53.668;9.578;2022-12-15T15:10:21;3.30;99.90
14378;DHT22;7272;53.668;9.578;2022-12-15T15:13:28;3.40;99.90
14378;DHT22;7272;53.668;9.578;2022-12-15T15:16:36;3.40;99.90
14378;DHT22;7272;53.668;9.578;2022-12-15T15:19:46;3.40;99.90
14378;DHT22;7272;53.668;9.578;2022-12-15T15:23:07;3.40;99.90
14378;DHT22;7272;53.668;9.578;2022-12-15T15:26:15;3.40;99.90
14378;DHT22;7272;53.668;9.578;2022-12-15T15:29:32;3.30;99.90
14378;DHT22;7272;53.668;9.578;2022-12-15T15:32:52;3.30;99.90
14378;DHT22;7272;53.668;9.578;2022-12-15T15:35:58;3.30;99.90
14378;DHT22;7272;53.668;9.578;2022-12-15T15:39:03;3.30;99.90
14378;DHT22;7272;53.668;9.578;2022-12-15T15:42:10;3.30;99.90
14378;DHT22;7272;53.668;9.578;2022-12-15T15:45:14;3.30;99.90
14378;DHT22;7272;53.668;9.578;2022-12-15T15:48:21;3.30;99.90
14378;DHT22;7272;53.668;9.578;2022-12-15T15:51:27;3.20;99.90
14378;DHT22;7272;53.668;9.578;2022-12-15T15:54:33;3.20;99.90
14378;DHT22;7272;53.668;9.578;2022-12-15T15:57:36;3.20;99.90
14378;DHT22;7272;53.668;9.578;2022-12-15T16:00:39;3.20;99.90
14378;DHT22;7272;53.668;9.578;2022-12-15T16:03:42;3.10;99.90
14378;DHT22;7272;53.668;9.578;2022-12-15T16:06:46;3.10;99.90
14378;DHT22;7272;53.668;9.578;2022-12-15T16:09:49;3.00;99.90
14378;DHT22;7272;53.668;9.578;2022-12-15T16:12:53;3.00;99.90
14378;DHT22;7272;53.668;9.578;2022-12-15T16:15:56;3.00;99.90
14378;DHT22;7272;53.668;9.578;2022-12-15T16:18:59;3.00;99.90
14378;DHT22;7272;53.668;9.578;2022-12-15T16:22:03;3.00;99.90
14378;DHT22;7272;53.668;9.578;2022-12-15T16:25:13;2.90;99.90
14378;DHT22;7272;53.668;9.578;2022-12-15T16:28:18;2.80;99.90
14378;DHT22;7272;53.668;9.578;2022-12-15T16:31:28;2.70;99.90
14378;DHT22;7272;53.668;9.578;2022-12-15T16:34:30;2.60;99.90
14378;DHT22;7272;53.668;9.578;2022-12-15T16:37:35;2.60;99.90
14378;DHT22;7272;53.668;9.578;2022-12-15T16:40:37;2.50;99.90
14378;DHT22;7272;53.668;9.578;2022-12-15T16:43:40;2.50;99.90
14378;DHT22;7272;53.668;9.578;2022-12-15T16:46:44;2.50;99.90
14378;DHT22;7272;53.668;9.578;2022-12-15T16:49:47;2.50;99.90
14378;DHT22;7272;53.668;9.578;2022-12-15T16:52:53;2.40;99.90
14378;DHT22;7272;53.668;9.578;2022-12-15T16:55:57;2.40;99.90
14378;DHT22;7272;53.668;9.578;2022-12-15T16:59:00;2.40;99.90
14378;DHT22;7272;53.668;9.578;2022-12-15T17:02:20;2.40;99.90
14378;DHT22;7272;53.668;9.578;2022-12-15T17:05:25;2.30;99.90
14378;DHT22;7272;53.668;9.578;2022-12-15T17:08:33;2.40;99.90
14378;DHT22;7272;53.668;9.578;2022-12-15T17:11:38;2.40;99.90
14378;DHT22;7272;53.668;9.578;2022-12-15T17:14:41;2.40;99.90
14378;DHT22;7272;53.668;9.578;2022-12-15T17:17:46;2.30;99.90
14378;DHT22;7272;53.668;9.578;2022-12-15T17:20:49;2.30;99.90
14378;DHT22;7272;53.668;9.578;2022-12-15T17:23:55;2.20;99.90
14378;DHT22;7272;53.668;9.578;2022-12-15T17:26:58;2.30;99.90
14378;DHT22;7272;53.668;9.578;2022-12-15T17:30:01;2.30;99.90
14378;DHT22;7272;53.668;9.578;2022-12-15T17:33:14;2.30;99.90
14378;DHT22;7272;53.668;9.578;2022-12-15T17:36:20;2.30;99.90
14378;DHT22;7272;53.668;9.578;2022-12-15T17:39:25;2.30;99.90
14378;DHT22;7272;53.668;9.578;2022-12-15T17:42:28;2.30;99.90
14378;DHT22;7272;53.668;9.578;2022-12-15T17:45:30;2.30;99.90
14378;DHT22;7272;53.668;9.578;2022-12-15T17:48:33;2.30;99.90
14378;DHT22;7272;53.668;9.578;2022-12-15T17:51:36;2.30;99.90
14378;DHT22;7272;53.668;9.578;2022-12-15T17:54:40;2.30;99.90
14378;DHT22;7272;53.668;9.578;2022-12-15T17:57:42;2.30;99.90
14378;DHT22;7272;53.668;9.578;2022-12-15T18:00:45;2.20;99.90
14378;DHT22;7272;53.668;9.578;2022-12-15T18:03:50;2.20;99.90
14378;DHT22;7272;53.668;9.578;2022-12-15T18:06:53;2.20;99.90
14378;DHT22;7272;53.668;9.578;2022-12-15T18:09:58;2.20;99.90
14378;DHT22;7272;53.668;9.578;2022-12-15T18:13:01;2.20;99.90
14378;DHT22;7272;53.668;9.578;2022-12-15T18:16:04;2.20;99.90
14378;DHT22;7272;53.668;9.578;2022-12-15T18:19:07;2.20;99.90
14378;DHT22;7272;53.668;9.578;2022-12-15T18:22:11;2.20;99.90
14378;DHT22;7272;53.668;9.578;2022-12-15T18:25:21;2.20;99.90
14378;DHT22;7272;53.668;9.578;2022-12-15T18:28:28;2.20;99.90
14378;DHT22;7272;53.668;9.578;2022-12-15T18:31:31;2.20;99.90
14378;DHT22;7272;53.668;9.578;2022-12-15T18:34:33;2.20;99.90
14378;DHT22;7272;53.668;9.578;2022-12-15T18:37:36;2.20;99.90
14378;DHT22;7272;53.668;9.578;2022-12-15T18:40:40;2.20;99.90
14378;DHT22;7272;53.668;9.578;2022-12-15T18:43:43;2.20;99.90
14378;DHT22;7272;53.668;9.578;2022-12-15T18:46:46;2.20;99.90
14378;DHT22;7272;53.668;9.578;2022-12-15T18:49:49;2.20;99.90
14378;DHT22;7272;53.668;9.578;2022-12-15T18:52:57;2.10;99.90
14378;DHT22;7272;53.668;9.578;2022-12-15T18:56:04;2.10;99.90
14378;DHT22;7272;53.668;9.578;2022-12-15T18:59:11;2.10;99.90
14378;DHT22;7272;53.668;9.578;2022-12-15T19:02:15;2.10;99.90
14378;DHT22;7272;53.668;9.578;2022-12-15T19:05:19;2.00;99.90
14378;DHT22;7272;53.668;9.578;2022-12-15T19:08:32;2.00;99.90
14378;DHT22;7272;53.668;9.578;2022-12-15T19:11:42;2.10;99.90
14378;DHT22;7272;53.668;9.578;2022-12-15T19:15:46;2.20;99.90
14378;DHT22;7272;53.668;9.578;2022-12-15T19:18:48;2.10;99.90
14378;DHT22;7272;53.668;9.578;2022-12-15T19:22:08;2.10;99.90
14378;DHT22;7272;53.668;9.578;2022-12-15T19:25:33;2.10;99.90
14378;DHT22;7272;53.668;9.578;2022-12-15T19:28:38;2.00;99.90
14378;DHT22;7272;53.668;9.578;2022-12-15T19:31:41;1.90;99.90
14378;DHT22;7272;53.668;9.578;2022-12-15T19:34:43;1.80;99.90
14378;DHT22;7272;53.668;9.578;2022-12-15T19:37:47;1.80;99.90
14378;DHT22;7272;53.668;9.578;2022-12-15T19:40:51;1.70;99.90
14378;DHT22;7272;53.668;9.578;2022-12-15T19:43:56;1.70;99.90
14378;DHT22;7272;53.668;9.578;2022-12-15T19:46:58;1.60;99.90
14378;DHT22;7272;53.668;9.578;2022-12-15T19:50:01;1.60;99.90
14378;DHT22;7272;53.668;9.578;2022-12-15T19:53:09;1.70;99.90
14378;DHT22;7272;53.668;9.578;2022-12-15T19:56:15;1.70;99.90
14378;DHT22;7272;53.668;9.578;2022-12-15T19:59:22;1.70;99.90
14378;DHT22;7272;53.668;9.578;2022-12-15T20:02:25;1.70;99.90
14378;DHT22;7272;53.668;9.578;2022-12-15T20:05:28;1.70;99.90
14378;DHT22;7272;53.668;9.578;2022-12-15T20:08:33;1.70;99.90
14378;DHT22;7272;53.668;9.578;2022-12-15T20:11:36;1.70;99.90
14378;DHT22;7272;53.668;9.578;2022-12-15T20:14:40;1.70;99.90
14378;DHT22;7272;53.668;9.578;2022-12-15T20:17:43;1.60;99.90
14378;DHT22;7272;53.668;9.578;2022-12-15T20:20:47;1.70;99.90
14378;DHT22;7272;53.668;9.578;2022-12-15T20:23:54;1.70;99.90
14378;DHT22;7272;53.668;9.578;2022-12-15T20:26:57;1.70;99.90